sensor_id;sensor_type;location;lat;lon;timestamp;temperature;humidity
19017;DHT22;9641;51.494;6.670;2022-12-29T00:00:06;11.70;99.90
19017;DHT22;9641;51.494;6.670;2022-12-29T00:02:40;11.60;99.90
19017;DHT22;9641;51.494;6.670;2022-12-29T00:05:07;11.60;99.90
19017;DHT22;9641;51.494;6.670;2022-12-29T00:07:34;11.60;99.90
19017;DHT22;9641;51.494;6.670;2022-12-29T00:10:01;11.60;99.90
19017;DHT22;9641;51.494;6.670;2022-12-29T00:12:28;11.50;99.90
19017;DHT22;9641;51.494;6.670;2022-12-29T00:15:16;11.30;99.90
19017;DHT22;9641;51.494;6.670;2022-12-29T00:18:00;11.10;99.90
19017;DHT22;9641;51.494;6.670;2022-12-29T00:20:27;11.00;99.90
19017;DHT22;9641;51.494;6.670;2022-12-29T00:23:11;10.90;99.90
19017;DHT22;9641;51.494;6.670;2022-12-29T00:25:56;10.90;99.90
19017;DHT22;9641;51.494;6.670;2022-12-29T00:28:41;10.90;99.90
19017;DHT22;9641;51.494;6.670;2022-12-29T00:31:26;10.90;99.90
19017;DHT22;9641;51.494;6.670;2022-12-29T00:34:11;10.80;99.90
19017;DHT22;9641;51.494;6.670;2022-12-29T00:36:56;10.80;99.90
19017;DHT22;9641;51.494;6.670;2022-12-29T00:39:23;10.90;99.90
19017;DHT22;9641;51.494;6.670;2022-12-29T00:42:08;10.90;99.90
19017;DHT22;9641;51.494;6.670;2022-12-29T00:44:53;11.00;99.90
19017;DHT22;9641;51.494;6.670;2022-12-29T00:47:21;11.10;99.90
19017;DHT22;9641;51.494;6.670;2022-12-29T00:49:48;11.10;99.90
19017;DHT22;9641;51.494;6.670;2022-12-29T00:52:16;11.10;99.90
19017;DHT22;9641;51.494;6.670;2022-12-29T00:54:44;11.10;99.90
19017;DHT22;9641;51.494;6.670;2022-12-29T00:57:11;11.10;99.90
19017;DHT22;9641;51.494;6.670;2022-12-29T00:59:40;11.10;99.90
19017;DHT22;9641;51.494;6.670;2022-12-29T01:02:08;11.10;99.90
19017;DHT22;9641;51.494;6.670;2022-12-29T01:04:37;11.10;99.90
19017;DHT22;9641;51.494;6.670;2022-12-29T01:07:04;11.00;99.90
19017;DHT22;9641;51.494;6.670;2022-12-29T01:09:32;11.00;99.90
19017;DHT22;9641;51.494;6.670;2022-12-29T01:12:17;10.90;99.90
19017;DHT22;9641;51.494;6.670;2022-12-29T01:15:05;10.90;99.90
19017;DHT22;9641;51.494;6.670;2022-12-29T01:17:33;10.90;99.90
19017;DHT22;9641;51.494;6.670;2022-12-29T01:20:01;10.90;99.90
19017;DHT22;9641;51.494;6.670;2022-12-29T01:22:28;10.90;99.90
19017;DHT22;9641;51.494;6.670;2022-12-29T01:24:55;10.90;99.90
19017;DHT22;9641;51.494;6.670;2022-12-29T01:27:22;11.00;99.90
19017;DHT22;9641;51.494;6.670;2022-12-29T01:29:49;11.00;99.90
19017;DHT22;9641;51.494;6.670;2022-12-29T01:32:16;11.10;99.90
19017;DHT22;9641;51.494;6.670;2022-12-29T01:34:43;11.20;99.90
19017;DHT22;9641;51.494;6.670;2022-12-29T01:37:11;11.20;99.90
19017;DHT22;9641;51.494;6.670;2022-12-29T01:39:38;11.40;99.90
19017;DHT22;9641;51.494;6.670;2022-12-29T01:42:05;11.40;99.90
19017;DHT22;9641;51.494;6.670;2022-12-29T01:44:52;11.50;99.90
19017;DHT22;9641;51.494;6.670;2022-12-29T01:47:27;11.60;99.90
19017;DHT22;9641;51.494;6.670;2022-12-29T01:49:57;11.70;99.90
19017;DHT22;9641;51.494;6.670;2022-12-29T01:52:30;11.80;99.90
19017;DHT22;9641;51.494;6.670;2022-12-29T01:54:59;11.80;99.90
19017;DHT22;9641;51.494;6.670;2022-12-29T01:57:30;11.80;99.90
19017;DHT22;9641;51.494;6.670;2022-12-29T02:00:03;11.90;99.90
19017;DHT22;9641;51.494;6.670;2022-12-29T02:02:39;11.90;99.90
19017;DHT22;9641;51.494;6.670;2022-12-29T02:05:11;12.00;99.90
19017;DHT22;9641;51.494;6.670;2022-12-29T02:07:42;12.00;99.90
19017;DHT22;9641;51.494;6.670;2022-12-29T02:10:10;12.00;99.90
19017;DHT22;9641;51.494;6.670;2022-12-29T02:12:38;12.00;99.90
19017;DHT22;9641;51.494;6.670;2022-12-29T02:15:06;12.00;99.90
19017;DHT22;9641;51.494;6.670;2022-12-29T02:17:45;12.10;99.90
19017;DHT22;9641;51.494;6.670;2022-12-29T02:23:30;12.10;99.90
19017;DHT22;9641;51.494;6.670;2022-12-29T02:26:34;12.20;99.90
19017;DHT22;9641;51.494;6.670;2022-12-29T02:32:06;12.20;99.90
19017;DHT22;9641;51.494;6.670;2022-12-29T02:34:41;12.20;99.90
19017;DHT22;9641;51.494;6.670;2022-12-29T02:37:20;12.20;99.90
19017;DHT22;9641;51.494;6.670;2022-12-29T02:39:52;12.20;96.30
19017;DHT22;9641;51.494;6.670;2022-12-29T02:42:26;12.20;99.90
19017;DHT22;9641;51.494;6.670;2022-12-29T02:45:03;12.20;98.20
19017;DHT22;9641;51.494;6.670;2022-12-29T02:47:37;12.20;92.40
19017;DHT22;9641;51.494;6.670;2022-12-29T02:50:08;12.30;85.80
19017;DHT22;9641;51.494;6.670;2022-12-29T02:52:40;12.20;83.80
19017;DHT22;9641;51.494;6.670;2022-12-29T02:55:10;12.20;66.40
19017;DHT22;9641;51.494;6.670;2022-12-29T02:57:37;12.30;62.30
19017;DHT22;9641;51.494;6.670;2022-12-29T03:00:07;12.30;64.30
19017;DHT22;9641;51.494;6.670;2022-12-29T03:02:46;12.30;76.40
19017;DHT22;9641;51.494;6.670;2022-12-29T03:05:42;12.20;76.50
19017;DHT22;9641;51.494;6.670;2022-12-29T03:08:17;12.20;93.90
19017;DHT22;9641;51.494;6.670;2022-12-29T03:10:48;12.00;99.90
19017;DHT22;9641;51.494;6.670;2022-12-29T03:13:23;12.00;99.90
19017;DHT22;9641;51.494;6.670;2022-12-29T03:16:18;12.00;99.90
19017;DHT22;9641;51.494;6.670;2022-12-29T03:18:55;12.10;99.90
19017;DHT22;9641;51.494;6.670;2022-12-29T03:21:30;12.10;99.90
19017;DHT22;9641;51.494;6.670;2022-12-29T03:24:15;12.10;97.30
19017;DHT22;9641;51.494;6.670;2022-12-29T03:26:47;12.10;99.90
19017;DHT22;9641;51.494;6.670;2022-12-29T03:29:16;12.00;99.90
19017;DHT22;9641;51.494;6.670;2022-12-29T03:31:45;11.90;99.90
19017;DHT22;9641;51.494;6.670;2022-12-29T03:34:16;11.90;99.90
19017;DHT22;9641;51.494;6.670;2022-12-29T03:36:49;11.90;99.90
19017;DHT22;9641;51.494;6.670;2022-12-29T03:39:20;12.00;99.90
19017;DHT22;9641;51.494;6.670;2022-12-29T03:41:50;12.10;97.60
19017;DHT22;9641;51.494;6.670;2022-12-29T03:44:18;12.10;94.10
19017;DHT22;9641;51.494;6.670;2022-12-29T03:46:45;12.20;92.50
19017;DHT22;9641;51.494;6.670;2022-12-29T03:49:12;12.20;81.30
19017;DHT22;9641;51.494;6.670;2022-12-29T03:51:41;12.20;99.90
19017;DHT22;9641;51.494;6.670;2022-12-29T03:54:07;11.90;99.90
19017;DHT22;9641;51.494;6.670;2022-12-29T03:56:34;11.60;99.90
19017;DHT22;9641;51.494;6.670;2022-12-29T03:59:02;11.50;99.90
19017;DHT22;9641;51.494;6.670;2022-12-29T04:01:36;11.40;99.90
19017;DHT22;9641;51.494;6.670;2022-12-29T04:04:04;11.40;99.90
19017;DHT22;9641;51.494;6.670;2022-12-29T04:06:31;11.40;99.90
19017;DHT22;9641;51.494;6.670;2022-12-29T04:09:03;11.40;99.90
19017;DHT22;9641;51.494;6.670;2022-12-29T04:11:34;11.30;99.90
19017;DHT22;9641;51.494;6.670;2022-12-29T04:14:03;11.20;99.90
19017;DHT22;9641;51.494;6.670;2022-12-29T04:16:32;11.10;99.90
19017;DHT22;9641;51.494;6.670;2022-12-29T04:19:02;11.10;99.90
19017;DHT22;9641;51.494;6.670;2022-12-29T04:21:29;11.00;99.90
19017;DHT22;9641;51.494;6.670;2022-12-29T04:23:57;10.90;99.90
19017;DHT22;9641;51.494;6.670;2022-12-29T04:26:26;10.90;99.90
19017;DHT22;9641;51.494;6.670;2022-12-29T04:29:00;10.90;99.90
19017;DHT22;9641;51.494;6.670;2022-12-29T04:31:47;10.80;99.90
19017;DHT22;9641;51.494;6.670;2022-12-29T04:34:14;10.80;99.90
19017;DHT22;9641;51.494;6.670;2022-12-29T04:36:41;10.90;99.90
19017;DHT22;9641;51.494;6.670;2022-12-29T04:39:08;10.90;99.90
19017;DHT22;9641;51.494;6.670;2022-12-29T04:41:39;10.90;99.90
19017;DHT22;9641;51.494;6.670;2022-12-29T04:44:10;11.00;99.90
19017;DHT22;9641;51.494;6.670;2022-12-29T04:47:01;11.00;99.90
19017;DHT22;9641;51.494;6.670;2022-12-29T04:49:38;10.80;99.90
19017;DHT22;9641;51.494;6.670;2022-12-29T04:52:33;10.50;99.90
19017;DHT22;9641;51.494;6.670;2022-12-29T04:55:00;10.20;99.90
19017;DHT22;9641;51.494;6.670;2022-12-29T04:57:28;9.90;99.90
19017;DHT22;9641;51.494;6.670;2022-12-29T04:59:58;9.80;99.90
19017;DHT22;9641;51.494;6.670;2022-12-29T05:02:25;9.80;99.90
19017;DHT22;9641;51.494;6.670;2022-12-29T05:04:53;9.70;99.90
19017;DHT22;9641;51.494;6.670;2022-12-29T05:07:20;9.70;99.90
19017;DHT22;9641;51.494;6.670;2022-12-29T05:09:48;9.70;99.90
19017;DHT22;9641;51.494;6.670;2022-12-29T05:12:15;9.60;99.90
19017;DHT22;9641;51.494;6.670;2022-12-29T05:14:57;9.70;99.90
19017;DHT22;9641;51.494;6.670;2022-12-29T05:17:24;9.70;99.90
19017;DHT22;9641;51.494;6.670;2022-12-29T05:19:52;9.70;99.90
19017;DHT22;9641;51.494;6.670;2022-12-29T05:22:19;9.70;99.90
19017;DHT22;9641;51.494;6.670;2022-12-29T05:24:46;9.70;99.90
19017;DHT22;9641;51.494;6.670;2022-12-29T05:27:14;9.70;99.90
19017;DHT22;9641;51.494;6.670;2022-12-29T05:29:57;9.70;99.90
19017;DHT22;9641;51.494;6.670;2022-12-29T05:32:25;9.60;99.90
19017;DHT22;9641;51.494;6.670;2022-12-29T05:34:53;9.60;99.90
19017;DHT22;9641;51.494;6.670;2022-12-29T05:37:20;9.70;99.90
19017;DHT22;9641;51.494;6.670;2022-12-29T05:39:47;9.70;99.90
19017;DHT22;9641;51.494;6.670;2022-12-29T05:42:14;9.80;99.90
19017;DHT22;9641;51.494;6.670;2022-12-29T05:44:52;9.80;99.90
19017;DHT22;9641;51.494;6.670;2022-12-29T05:47:48;9.80;99.90
19017;DHT22;9641;51.494;6.670;2022-12-29T05:50:50;9.90;99.90
19017;DHT22;9641;51.494;6.670;2022-12-29T05:53:23;9.80;99.90
19017;DHT22;9641;51.494;6.670;2022-12-29T05:55:50;9.80;99.90
19017;DHT22;9641;51.494;6.670;2022-12-29T05:58:19;9.90;99.90
19017;DHT22;9641;51.494;6.670;2022-12-29T06:00:47;9.90;99.90
19017;DHT22;9641;51.494;6.670;2022-12-29T06:03:15;9.90;99.90
19017;DHT22;9641;51.494;6.670;2022-12-29T06:05:44;10.00;99.90
19017;DHT22;9641;51.494;6.670;2022-12-29T06:08:11;10.10;99.90
19017;DHT22;9641;51.494;6.670;2022-12-29T06:10:39;10.10;99.90
19017;DHT22;9641;51.494;6.670;2022-12-29T06:13:07;10.20;99.90
19017;DHT22;9641;51.494;6.670;2022-12-29T06:15:36;10.20;99.90
19017;DHT22;9641;51.494;6.670;2022-12-29T06:18:07;10.30;99.90
19017;DHT22;9641;51.494;6.670;2022-12-29T06:20:35;10.40;99.90
19017;DHT22;9641;51.494;6.670;2022-12-29T06:23:05;10.50;99.90
19017;DHT22;9641;51.494;6.670;2022-12-29T06:25:32;10.60;99.90
19017;DHT22;9641;51.494;6.670;2022-12-29T06:28:01;10.70;99.90
19017;DHT22;9641;51.494;6.670;2022-12-29T06:30:28;10.70;99.90
19017;DHT22;9641;51.494;6.670;2022-12-29T06:32:57;10.70;99.90
19017;DHT22;9641;51.494;6.670;2022-12-29T06:35:25;10.80;99.90
19017;DHT22;9641;51.494;6.670;2022-12-29T06:37:53;10.80;99.90
19017;DHT22;9641;51.494;6.670;2022-12-29T06:40:20;10.90;99.90
19017;DHT22;9641;51.494;6.670;2022-12-29T06:43:01;10.90;99.90
19017;DHT22;9641;51.494;6.670;2022-12-29T06:45:40;11.00;99.90
19017;DHT22;9641;51.494;6.670;2022-12-29T06:48:07;11.00;99.90
19017;DHT22;9641;51.494;6.670;2022-12-29T06:50:35;11.10;99.90
19017;DHT22;9641;51.494;6.670;2022-12-29T06:53:03;11.10;99.90
19017;DHT22;9641;51.494;6.670;2022-12-29T06:55:30;11.10;99.90
19017;DHT22;9641;51.494;6.670;2022-12-29T06:57:58;11.10;99.90
19017;DHT22;9641;51.494;6.670;2022-12-29T07:00:28;11.10;99.90
19017;DHT22;9641;51.494;6.670;2022-12-29T07:02:56;11.10;99.90
19017;DHT22;9641;51.494;6.670;2022-12-29T07:05:26;11.10;99.90
19017;DHT22;9641;51.494;6.670;2022-12-29T07:07:53;11.10;99.90
19017;DHT22;9641;51.494;6.670;2022-12-29T07:10:22;11.00;99.90
19017;DHT22;9641;51.494;6.670;2022-12-29T07:12:49;10.90;99.90
19017;DHT22;9641;51.494;6.670;2022-12-29T07:15:16;10.90;99.90
19017;DHT22;9641;51.494;6.670;2022-12-29T07:17:43;11.00;99.90
19017;DHT22;9641;51.494;6.670;2022-12-29T07:20:10;11.00;99.90
19017;DHT22;9641;51.494;6.670;2022-12-29T07:22:38;10.90;99.90
19017;DHT22;9641;51.494;6.670;2022-12-29T07:25:05;10.90;99.90
19017;DHT22;9641;51.494;6.670;2022-12-29T07:27:33;11.00;99.90
19017;DHT22;9641;51.494;6.670;2022-12-29T07:30:01;11.10;99.90
19017;DHT22;9641;51.494;6.670;2022-12-29T07:32:28;11.10;99.90
19017;DHT22;9641;51.494;6.670;2022-12-29T07:34:55;11.10;99.90
19017;DHT22;9641;51.494;6.670;2022-12-29T07:37:21;11.10;99.90
19017;DHT22;9641;51.494;6.670;2022-12-29T07:39:48;11.10;99.90
19017;DHT22;9641;51.494;6.670;2022-12-29T07:42:15;11.20;80.30
19017;DHT22;9641;51.494;6.670;2022-12-29T07:44:50;11.20;93.60
19017;DHT22;9641;51.494;6.670;2022-12-29T07:47:32;11.20;66.50
19017;DHT22;9641;51.494;6.670;2022-12-29T07:49:59;11.20;43.20
19017;DHT22;9641;51.494;6.670;2022-12-29T07:52:27;11.20;47.80
19017;DHT22;9641;51.494;6.670;2022-12-29T07:54:54;11.20;1.60
19017;DHT22;9641;51.494;6.670;2022-12-29T07:57:21;11.10;2.10
19017;DHT22;9641;51.494;6.670;2022-12-29T07:59:47;11.20;1.00
19017;DHT22;9641;51.494;6.670;2022-12-29T08:02:16;11.20;1.00
19017;DHT22;9641;51.494;6.670;2022-12-29T08:04:43;11.20;1.00
19017;DHT22;9641;51.494;6.670;2022-12-29T08:07:10;11.10;1.00
19017;DHT22;9641;51.494;6.670;2022-12-29T08:09:37;11.10;1.00
19017;DHT22;9641;51.494;6.670;2022-12-29T08:12:04;11.10;1.00
19017;DHT22;9641;51.494;6.670;2022-12-29T08:14:31;11.10;1.00
19017;DHT22;9641;51.494;6.670;2022-12-29T08:16:58;11.20;1.00
19017;DHT22;9641;51.494;6.670;2022-12-29T08:19:26;11.20;1.00
19017;DHT22;9641;51.494;6.670;2022-12-29T08:21:53;11.20;1.00
19017;DHT22;9641;51.494;6.670;2022-12-29T08:24:20;11.20;1.00
19017;DHT22;9641;51.494;6.670;2022-12-29T08:26:47;11.20;1.00
19017;DHT22;9641;51.494;6.670;2022-12-29T08:29:14;11.20;1.00
19017;DHT22;9641;51.494;6.670;2022-12-29T08:31:42;11.30;1.00
19017;DHT22;9641;51.494;6.670;2022-12-29T08:34:09;11.20;1.00
19017;DHT22;9641;51.494;6.670;2022-12-29T08:36:38;11.10;1.00
19017;DHT22;9641;51.494;6.670;2022-12-29T08:39:05;11.10;1.00
19017;DHT22;9641;51.494;6.670;2022-12-29T08:41:32;11.10;1.00
19017;DHT22;9641;51.494;6.670;2022-12-29T08:43:59;11.10;1.00
19017;DHT22;9641;51.494;6.670;2022-12-29T08:46:26;11.10;1.00
19017;DHT22;9641;51.494;6.670;2022-12-29T08:48:54;11.10;1.00
19017;DHT22;9641;51.494;6.670;2022-12-29T08:51:21;11.20;1.00
19017;DHT22;9641;51.494;6.670;2022-12-29T08:53:49;11.20;1.00
19017;DHT22;9641;51.494;6.670;2022-12-29T08:56:16;11.30;1.00
19017;DHT22;9641;51.494;6.670;2022-12-29T08:58:48;11.40;1.00
19017;DHT22;9641;51.494;6.670;2022-12-29T09:01:17;11.40;1.00
19017;DHT22;9641;51.494;6.670;2022-12-29T09:03:44;11.50;1.00
19017;DHT22;9641;51.494;6.670;2022-12-29T09:06:12;11.60;1.00
19017;DHT22;9641;51.494;6.670;2022-12-29T09:08:39;11.60;1.00
19017;DHT22;9641;51.494;6.670;2022-12-29T09:11:09;11.60;1.00
19017;DHT22;9641;51.494;6.670;2022-12-29T09:13:37;11.70;1.00
19017;DHT22;9641;51.494;6.670;2022-12-29T09:16:04;11.60;1.00
19017;DHT22;9641;51.494;6.670;2022-12-29T09:18:34;11.60;21.00
19017;DHT22;9641;51.494;6.670;2022-12-29T09:21:04;11.60;99.90
19017;DHT22;9641;51.494;6.670;2022-12-29T09:23:33;11.60;99.90
19017;DHT22;9641;51.494;6.670;2022-12-29T09:26:02;11.50;99.90
19017;DHT22;9641;51.494;6.670;2022-12-29T09:28:35;11.50;1.00
19017;DHT22;9641;51.494;6.670;2022-12-29T09:31:03;11.50;99.90
19017;DHT22;9641;51.494;6.670;2022-12-29T09:33:30;11.50;1.00
19017;DHT22;9641;51.494;6.670;2022-12-29T09:36:04;11.50;99.90
19017;DHT22;9641;51.494;6.670;2022-12-29T09:38:34;11.40;99.90
19017;DHT22;9641;51.494;6.670;2022-12-29T09:41:06;11.50;1.00
19017;DHT22;9641;51.494;6.670;2022-12-29T09:46:42;11.50;99.90
19017;DHT22;9641;51.494;6.670;2022-12-29T09:49:28;11.50;1.00
19017;DHT22;9641;51.494;6.670;2022-12-29T09:52:01;11.50;99.90
19017;DHT22;9641;51.494;6.670;2022-12-29T09:54:37;11.60;1.00
19017;DHT22;9641;51.494;6.670;2022-12-29T09:57:13;11.70;1.00
19017;DHT22;9641;51.494;6.670;2022-12-29T09:59:42;11.70;1.00
19017;DHT22;9641;51.494;6.670;2022-12-29T10:02:31;11.80;99.90
19017;DHT22;9641;51.494;6.670;2022-12-29T10:04:58;11.80;1.00
19017;DHT22;9641;51.494;6.670;2022-12-29T10:07:33;11.80;1.00
19017;DHT22;9641;51.494;6.670;2022-12-29T10:10:29;11.70;1.00
19017;DHT22;9641;51.494;6.670;2022-12-29T10:13:09;11.70;1.00
19017;DHT22;9641;51.494;6.670;2022-12-29T10:15:47;11.70;99.90
19017;DHT22;9641;51.494;6.670;2022-12-29T10:18:40;11.80;99.90
19017;DHT22;9641;51.494;6.670;2022-12-29T10:21:17;11.80;99.90
19017;DHT22;9641;51.494;6.670;2022-12-29T10:23:49;11.80;1.00
19017;DHT22;9641;51.494;6.670;2022-12-29T10:26:18;11.90;1.00
19017;DHT22;9641;51.494;6.670;2022-12-29T10:28:49;11.90;1.00
19017;DHT22;9641;51.494;6.670;2022-12-29T10:31:22;11.90;99.90
19017;DHT22;9641;51.494;6.670;2022-12-29T10:33:55;12.00;99.90
19017;DHT22;9641;51.494;6.670;2022-12-29T10:36:28;12.00;1.00
19017;DHT22;9641;51.494;6.670;2022-12-29T10:39:05;12.00;99.90
19017;DHT22;9641;51.494;6.670;2022-12-29T10:41:38;12.00;99.90
19017;DHT22;9641;51.494;6.670;2022-12-29T10:44:09;11.90;99.90
19017;DHT22;9641;51.494;6.670;2022-12-29T10:46:38;12.00;99.90
19017;DHT22;9641;51.494;6.670;2022-12-29T10:49:14;12.00;1.00
19017;DHT22;9641;51.494;6.670;2022-12-29T10:51:45;12.00;1.00
19017;DHT22;9641;51.494;6.670;2022-12-29T10:54:16;11.90;1.00
19017;DHT22;9641;51.494;6.670;2022-12-29T10:56:50;11.90;1.00
19017;DHT22;9641;51.494;6.670;2022-12-29T10:59:21;11.90;1.00
19017;DHT22;9641;51.494;6.670;2022-12-29T11:01:56;11.80;99.90
19017;DHT22;9641;51.494;6.670;2022-12-29T11:04:39;11.80;99.90
19017;DHT22;9641;51.494;6.670;2022-12-29T11:07:10;11.80;99.90
19017;DHT22;9641;51.494;6.670;2022-12-29T11:09:39;11.90;1.00
19017;DHT22;9641;51.494;6.670;2022-12-29T11:12:19;12.00;1.00
19017;DHT22;9641;51.494;6.670;2022-12-29T11:14:46;12.20;99.90
19017;DHT22;9641;51.494;6.670;2022-12-29T11:17:15;12.50;1.00
19017;DHT22;9641;51.494;6.670;2022-12-29T11:19:44;12.40;1.00
19017;DHT22;9641;51.494;6.670;2022-12-29T11:22:18;12.40;1.00
19017;DHT22;9641;51.494;6.670;2022-12-29T11:24:48;12.20;1.00
19017;DHT22;9641;51.494;6.670;2022-12-29T11:27:17;12.20;99.90
19017;DHT22;9641;51.494;6.670;2022-12-29T11:29:45;12.30;1.00
19017;DHT22;9641;51.494;6.670;2022-12-29T11:32:18;12.20;99.90
19017;DHT22;9641;51.494;6.670;2022-12-29T11:34:47;12.00;99.90
19017;DHT22;9641;51.494;6.670;2022-12-29T11:37:17;12.00;1.00
19017;DHT22;9641;51.494;6.670;2022-12-29T11:39:50;11.90;1.00
19017;DHT22;9641;51.494;6.670;2022-12-29T11:42:20;11.90;1.00
19017;DHT22;9641;51.494;6.670;2022-12-29T11:44:49;11.90;91.50
19017;DHT22;9641;51.494;6.670;2022-12-29T11:47:25;11.90;1.00
19017;DHT22;9641;51.494;6.670;2022-12-29T11:49:56;11.90;1.00
19017;DHT22;9641;51.494;6.670;2022-12-29T11:52:26;11.90;1.00
19017;DHT22;9641;51.494;6.670;2022-12-29T11:54:55;11.90;1.00
19017;DHT22;9641;51.494;6.670;2022-12-29T11:57:23;12.00;99.90
19017;DHT22;9641;51.494;6.670;2022-12-29T11:59:52;12.00;1.00
19017;DHT22;9641;51.494;6.670;2022-12-29T12:02:35;12.10;99.90
19017;DHT22;9641;51.494;6.670;2022-12-29T12:05:20;12.10;99.90
19017;DHT22;9641;51.494;6.670;2022-12-29T12:07:52;12.20;99.90
19017;DHT22;9641;51.494;6.670;2022-12-29T12:10:24;12.10;84.60
19017;DHT22;9641;51.494;6.670;2022-12-29T12:13:02;12.10;99.90
19017;DHT22;9641;51.494;6.670;2022-12-29T12:15:35;12.00;99.90
19017;DHT22;9641;51.494;6.670;2022-12-29T12:18:09;11.90;1.00
19017;DHT22;9641;51.494;6.670;2022-12-29T12:20:49;11.90;1.00
19017;DHT22;9641;51.494;6.670;2022-12-29T12:23:31;11.80;1.00
19017;DHT22;9641;51.494;6.670;2022-12-29T12:26:09;11.80;1.00
19017;DHT22;9641;51.494;6.670;2022-12-29T12:28:42;11.70;99.90
19017;DHT22;9641;51.494;6.670;2022-12-29T12:31:18;11.60;99.90
19017;DHT22;9641;51.494;6.670;2022-12-29T12:33:54;11.70;1.00
19017;DHT22;9641;51.494;6.670;2022-12-29T12:36:36;11.70;99.90
19017;DHT22;9641;51.494;6.670;2022-12-29T12:39:12;11.60;1.00
19017;DHT22;9641;51.494;6.670;2022-12-29T12:41:48;11.60;1.00
19017;DHT22;9641;51.494;6.670;2022-12-29T12:44:23;11.70;1.00
19017;DHT22;9641;51.494;6.670;2022-12-29T12:50:17;11.60;1.00
19017;DHT22;9641;51.494;6.670;2022-12-29T12:53:13;11.60;1.00
19017;DHT22;9641;51.494;6.670;2022-12-29T12:55:57;11.60;1.00
19017;DHT22;9641;51.494;6.670;2022-12-29T12:58:31;11.70;1.00
19017;DHT22;9641;51.494;6.670;2022-12-29T13:01:18;11.70;99.90
19017;DHT22;9641;51.494;6.670;2022-12-29T13:04:04;11.70;99.90
19017;DHT22;9641;51.494;6.670;2022-12-29T13:06:40;11.70;99.90
19017;DHT22;9641;51.494;6.670;2022-12-29T13:09:27;11.80;99.90
19017;DHT22;9641;51.494;6.670;2022-12-29T13:12:03;11.90;1.00
19017;DHT22;9641;51.494;6.670;2022-12-29T13:14:42;11.90;99.90
19017;DHT22;9641;51.494;6.670;2022-12-29T13:17:23;11.80;99.90
19017;DHT22;9641;51.494;6.670;2022-12-29T13:19:59;12.10;1.00
19017;DHT22;9641;51.494;6.670;2022-12-29T13:22:33;12.10;1.00
19017;DHT22;9641;51.494;6.670;2022-12-29T13:25:27;12.00;1.00
19017;DHT22;9641;51.494;6.670;2022-12-29T13:27:59;11.80;1.00
19017;DHT22;9641;51.494;6.670;2022-12-29T13:30:34;11.70;1.00
19017;DHT22;9641;51.494;6.670;2022-12-29T13:33:07;11.80;1.00
19017;DHT22;9641;51.494;6.670;2022-12-29T13:35:49;12.50;99.90
19017;DHT22;9641;51.494;6.670;2022-12-29T13:38:21;12.80;1.00
19017;DHT22;9641;51.494;6.670;2022-12-29T13:40:55;12.60;1.00
19017;DHT22;9641;51.494;6.670;2022-12-29T13:43:23;12.40;99.90
19017;DHT22;9641;51.494;6.670;2022-12-29T13:45:57;12.10;1.00
19017;DHT22;9641;51.494;6.670;2022-12-29T13:48:34;11.90;3.50
19017;DHT22;9641;51.494;6.670;2022-12-29T13:51:04;11.80;1.00
19017;DHT22;9641;51.494;6.670;2022-12-29T13:53:37;11.70;1.00
19017;DHT22;9641;51.494;6.670;2022-12-29T13:56:14;11.60;1.00
19017;DHT22;9641;51.494;6.670;2022-12-29T13:58:50;11.60;99.90
19017;DHT22;9641;51.494;6.670;2022-12-29T14:01:24;11.50;1.00
19017;DHT22;9641;51.494;6.670;2022-12-29T14:03:57;11.50;99.90
19017;DHT22;9641;51.494;6.670;2022-12-29T14:06:25;11.40;1.00
19017;DHT22;9641;51.494;6.670;2022-12-29T14:08:55;11.30;99.90
19017;DHT22;9641;51.494;6.670;2022-12-29T14:11:31;11.10;1.00
19017;DHT22;9641;51.494;6.670;2022-12-29T14:13:59;11.00;8.50
19017;DHT22;9641;51.494;6.670;2022-12-29T14:16:37;11.00;99.90
19017;DHT22;9641;51.494;6.670;2022-12-29T14:19:13;11.00;99.90
19017;DHT22;9641;51.494;6.670;2022-12-29T14:21:44;11.10;11.00
19017;DHT22;9641;51.494;6.670;2022-12-29T14:24:49;11.10;1.00
19017;DHT22;9641;51.494;6.670;2022-12-29T14:30:49;11.10;1.00
19017;DHT22;9641;51.494;6.670;2022-12-29T14:33:17;11.10;1.00
19017;DHT22;9641;51.494;6.670;2022-12-29T14:35:46;11.10;1.00
19017;DHT22;9641;51.494;6.670;2022-12-29T14:38:18;11.10;1.00
19017;DHT22;9641;51.494;6.670;2022-12-29T14:40:46;11.10;99.90
19017;DHT22;9641;51.494;6.670;2022-12-29T14:43:20;11.10;1.00
19017;DHT22;9641;51.494;6.670;2022-12-29T14:46:05;11.20;99.90
19017;DHT22;9641;51.494;6.670;2022-12-29T14:48:39;11.20;1.00
19017;DHT22;9641;51.494;6.670;2022-12-29T14:51:20;11.20;99.90
19017;DHT22;9641;51.494;6.670;2022-12-29T14:53:49;11.20;51.10
19017;DHT22;9641;51.494;6.670;2022-12-29T14:56:17;11.20;1.00
19017;DHT22;9641;51.494;6.670;2022-12-29T14:58:51;11.20;1.00
19017;DHT22;9641;51.494;6.670;2022-12-29T15:01:38;11.20;1.00
19017;DHT22;9641;51.494;6.670;2022-12-29T15:04:16;11.20;1.00
19017;DHT22;9641;51.494;6.670;2022-12-29T15:06:45;11.20;1.00
19017;DHT22;9641;51.494;6.670;2022-12-29T15:09:22;11.20;1.00
19017;DHT22;9641;51.494;6.670;2022-12-29T15:11:51;11.20;1.00
19017;DHT22;9641;51.494;6.670;2022-12-29T15:14:35;11.20;99.90
19017;DHT22;9641;51.494;6.670;2022-12-29T15:17:22;11.20;1.00
19017;DHT22;9641;51.494;6.670;2022-12-29T15:19:50;11.20;1.00
19017;DHT22;9641;51.494;6.670;2022-12-29T15:22:17;11.20;1.00
19017;DHT22;9641;51.494;6.670;2022-12-29T15:24:45;11.10;1.00
19017;DHT22;9641;51.494;6.670;2022-12-29T15:27:14;11.10;1.00
19017;DHT22;9641;51.494;6.670;2022-12-29T15:29:42;11.10;1.00
19017;DHT22;9641;51.494;6.670;2022-12-29T15:32:20;11.10;56.30
19017;DHT22;9641;51.494;6.670;2022-12-29T15:34:49;11.00;99.90
19017;DHT22;9641;51.494;6.670;2022-12-29T15:37:19;10.90;1.00
19017;DHT22;9641;51.494;6.670;2022-12-29T15:39:47;10.80;1.00
19017;DHT22;9641;51.494;6.670;2022-12-29T15:42:45;10.60;1.00
19017;DHT22;9641;51.494;6.670;2022-12-29T15:45:16;10.60;1.00
19017;DHT22;9641;51.494;6.670;2022-12-29T15:47:46;10.60;15.60
19017;DHT22;9641;51.494;6.670;2022-12-29T15:50:22;10.70;1.00
19017;DHT22;9641;51.494;6.670;2022-12-29T15:52:50;10.70;99.90
19017;DHT22;9641;51.494;6.670;2022-12-29T15:55:20;10.80;1.00
19017;DHT22;9641;51.494;6.670;2022-12-29T15:57:49;10.80;1.00
19017;DHT22;9641;51.494;6.670;2022-12-29T16:00:27;10.80;2.80
19017;DHT22;9641;51.494;6.670;2022-12-29T16:03:02;10.80;99.90
19017;DHT22;9641;51.494;6.670;2022-12-29T16:05:39;10.80;99.90
19017;DHT22;9641;51.494;6.670;2022-12-29T16:08:24;10.80;1.00
19017;DHT22;9641;51.494;6.670;2022-12-29T16:10:54;10.80;1.00
19017;DHT22;9641;51.494;6.670;2022-12-29T16:13:26;10.80;1.00
19017;DHT22;9641;51.494;6.670;2022-12-29T16:15:59;10.80;1.00
19017;DHT22;9641;51.494;6.670;2022-12-29T16:18:32;10.70;99.90
19017;DHT22;9641;51.494;6.670;2022-12-29T16:21:01;10.70;99.90
19017;DHT22;9641;51.494;6.670;2022-12-29T16:23:29;10.70;1.00
19017;DHT22;9641;51.494;6.670;2022-12-29T16:25:57;10.60;99.90
19017;DHT22;9641;51.494;6.670;2022-12-29T16:28:30;10.20;1.00
19017;DHT22;9641;51.494;6.670;2022-12-29T16:31:03;9.90;1.00
19017;DHT22;9641;51.494;6.670;2022-12-29T16:33:45;9.60;34.00
19017;DHT22;9641;51.494;6.670;2022-12-29T16:36:32;9.40;96.70
19017;DHT22;9641;51.494;6.670;2022-12-29T16:39:11;9.20;99.90
19017;DHT22;9641;51.494;6.670;2022-12-29T16:41:43;9.10;99.90